createdAt,value
2018-07-26T00:01:01.894Z,101349.50
2018-07-26T00:03:28.920Z,101349.39
2018-07-26T00:05:56.009Z,101350.59
2018-07-26T00:08:22.969Z,101356.98
2018-07-26T00:10:50.061Z,101349.67
2018-07-26T00:13:17.072Z,101351.02
2018-07-26T00:15:44.084Z,101349.03
2018-07-26T00:18:11.085Z,101359.73
2018-07-26T00:20:38.057Z,101354.09
2018-07-26T00:23:05.301Z,101352.13
2018-07-26T00:25:32.348Z,101356.83
2018-07-26T00:27:59.329Z,101355.49
2018-07-26T00:30:26.349Z,101356.53
2018-07-26T00:32:53.387Z,101355.09
2018-07-26T00:35:20.373Z,101359.93
2018-07-26T00:37:47.345Z,101361.27
2018-07-26T00:40:14.348Z,101364.95
2018-07-26T00:42:41.336Z,101368.97
2018-07-26T00:45:08.345Z,101374.72
2018-07-26T00:47:35.432Z,101363.91
2018-07-26T00:50:02.586Z,101368.95
2018-07-26T00:52:29.586Z,101376.15
2018-07-26T00:54:56.609Z,101374.20
2018-07-26T00:57:23.877Z,101380.44
2018-07-26T00:59:50.846Z,101382.70
2018-07-26T01:02:17.849Z,101385.27
2018-07-26T01:04:44.905Z,101385.66
2018-07-26T01:07:12.258Z,101388.00
2018-07-26T01:09:39.348Z,101383.05
2018-07-26T01:12:06.457Z,101386.77
2018-07-26T01:14:33.582Z,101393.33
2018-07-26T01:17:00.570Z,101388.38
2018-07-26T01:19:27.613Z,101387.63
2018-07-26T01:21:54.618Z,101387.69
2018-07-26T01:24:21.649Z,101388.62
2018-07-26T01:26:48.652Z,101390.67
2018-07-26T01:29:18.888Z,101388.38
2018-07-26T01:31:45.974Z,101385.80
2018-07-26T01:34:12.948Z,101381.13
2018-07-26T01:36:39.969Z,101390.88
2018-07-26T01:39:07.757Z,101388.26
2018-07-26T01:41:34.709Z,101378.98
2018-07-26T01:44:13.141Z,101383.17
2018-07-26T01:46:40.145Z,101380.71
2018-07-26T01:49:07.176Z,101383.89
2018-07-26T01:51:34.173Z,101381.59
2018-07-26T01:54:01.429Z,101384.15
2018-07-26T01:56:28.428Z,101384.98
2018-07-26T01:58:55.389Z,101384.15
2018-07-26T02:01:22.362Z,101390.53
2018-07-26T02:03:49.456Z,101381.36
2018-07-26T02:06:16.542Z,101381.06
2018-07-26T02:08:43.525Z,101378.56
2018-07-26T02:11:10.509Z,101378.32
2018-07-26T02:13:37.493Z,101376.98
2018-07-26T02:16:04.481Z,101374.64
2018-07-26T02:18:31.503Z,101375.59
2018-07-26T02:20:58.521Z,101378.56
2018-07-26T02:23:25.580Z,101379.39
2018-07-26T02:25:52.956Z,101375.59
2018-07-26T02:28:19.937Z,101370.96
2018-07-26T02:30:46.953Z,101369.80
2018-07-26T02:33:14.110Z,101372.35
2018-07-26T02:35:41.136Z,101366.89
2018-07-26T02:38:08.789Z,101367.59
2018-07-26T02:40:35.813Z,101368.81
2018-07-26T02:43:02.847Z,101367.98
2018-07-26T02:45:29.834Z,101369.72
2018-07-26T02:47:57.033Z,101377.08
2018-07-26T02:50:24.049Z,101371.11
2018-07-26T02:52:51.005Z,101368.31
2018-07-26T02:55:18.006Z,101373.53
2018-07-26T02:57:45.006Z,101371.24
2018-07-26T03:00:12.007Z,101373.67
2018-07-26T03:02:39.110Z,101370.87
2018-07-26T03:05:06.627Z,101378.58
2018-07-26T03:07:33.684Z,101372.61
2018-07-26T03:10:00.661Z,101377.00
2018-07-26T03:12:27.661Z,101379.54
2018-07-26T03:14:54.630Z,101372.73
2018-07-26T03:17:21.662Z,101376.08
2018-07-26T03:19:48.657Z,101374.30
2018-07-26T03:22:15.689Z,101377.03
2018-07-26T03:24:42.681Z,101376.58
2018-07-26T03:27:10.244Z,101375.83
2018-07-26T03:29:37.238Z,101377.86
2018-07-26T03:32:04.237Z,101379.90
2018-07-26T03:34:31.192Z,101371.06
2018-07-26T03:36:58.182Z,101371.77
2018-07-26T03:39:25.205Z,101378.11
2018-07-26T03:41:52.225Z,101369.47
2018-07-26T03:44:19.213Z,101373.14
2018-07-26T03:46:46.261Z,101368.70
2018-07-26T03:49:13.277Z,101363.24
2018-07-26T03:51:40.264Z,101368.58
2018-07-26T03:54:07.237Z,101373.08
2018-07-26T03:56:34.270Z,101374.59
2018-07-26T03:59:01.370Z,101372.63
2018-07-26T04:01:28.358Z,101376.95
2018-07-26T04:03:55.342Z,101376.25
2018-07-26T04:06:22.624Z,101383.55
2018-07-26T04:08:49.621Z,101382.55
2018-07-26T04:11:16.622Z,101382.22
2018-07-26T04:13:43.584Z,101381.22
2018-07-26T04:16:10.613Z,101385.85
2018-07-26T04:18:37.617Z,101387.81
2018-07-26T04:21:04.617Z,101390.12
2018-07-26T04:23:31.646Z,101391.08
2018-07-26T04:25:58.656Z,101385.37
2018-07-26T04:28:25.645Z,101383.63
2018-07-26T04:30:52.693Z,101389.42
2018-07-26T04:33:19.690Z,101392.92
2018-07-26T04:35:46.669Z,101390.55
2018-07-26T04:38:13.677Z,101390.39
2018-07-26T04:40:40.669Z,101392.48
2018-07-26T04:43:07.721Z,101388.09
2018-07-26T04:45:34.701Z,101388.89
2018-07-26T04:48:01.693Z,101391.55
2018-07-26T04:50:28.644Z,101392.81
2018-07-26T04:52:55.730Z,101386.27
2018-07-26T04:55:22.697Z,101392.89
2018-07-26T04:57:49.688Z,101394.15
2018-07-26T05:00:16.761Z,101392.73
2018-07-26T05:02:43.760Z,101391.34
2018-07-26T05:05:10.716Z,101394.14
2018-07-26T05:07:37.904Z,101386.88
2018-07-26T05:10:04.975Z,101390.09
2018-07-26T05:12:32.324Z,101390.67
2018-07-26T05:14:59.547Z,101393.92
2018-07-26T05:17:26.549Z,101393.33
2018-07-26T05:19:53.584Z,101396.54
2018-07-26T05:22:20.570Z,101396.28
2018-07-26T05:24:47.585Z,101396.52
2018-07-26T05:27:14.837Z,101392.78
2018-07-26T05:29:41.812Z,101394.67
2018-07-26T05:32:08.879Z,101393.88
2018-07-26T05:34:36.025Z,101395.95
2018-07-26T05:37:03.049Z,101392.50
2018-07-26T05:39:30.085Z,101393.56
2018-07-26T05:41:57.129Z,101399.98
2018-07-26T05:44:24.093Z,101398.33
2018-07-26T05:46:51.052Z,101396.72
2018-07-26T05:49:18.149Z,101403.13
2018-07-26T05:51:45.173Z,101399.34
2018-07-26T05:54:12.170Z,101404.20
2018-07-26T05:56:39.174Z,101407.61
2018-07-26T05:59:06.181Z,101409.53
2018-07-26T06:01:33.339Z,101405.23
2018-07-26T06:04:00.337Z,101406.47
2018-07-26T06:06:27.354Z,101409.38
2018-07-26T06:08:54.344Z,101406.91
2018-07-26T06:11:21.325Z,101413.31
2018-07-26T06:13:48.353Z,101414.66
2018-07-26T06:16:15.354Z,101416.55
2018-07-26T06:18:42.501Z,101418.39
2018-07-26T06:21:09.601Z,101417.59
2018-07-26T06:23:36.583Z,101416.75
2018-07-26T06:26:04.164Z,101418.55
2018-07-26T06:28:31.188Z,101417.74
2018-07-26T06:30:58.331Z,101427.44
2018-07-26T06:33:25.373Z,101428.97
2018-07-26T06:35:52.316Z,101424.02
2018-07-26T06:38:19.290Z,101428.27
2018-07-26T06:40:46.256Z,101424.45
2018-07-26T06:43:13.264Z,101430.72
2018-07-26T06:45:40.230Z,101437.53
2018-07-26T06:48:07.437Z,101437.92
2018-07-26T06:50:34.445Z,101437.38
2018-07-26T06:53:01.528Z,101437.17
2018-07-26T06:55:28.460Z,101435.80
2018-07-26T06:57:55.434Z,101436.30
2018-07-26T07:00:22.404Z,101429.69
2018-07-26T07:02:49.434Z,101430.90
2018-07-26T07:05:16.416Z,101433.35
2018-07-26T07:07:43.392Z,101436.31
2018-07-26T07:10:10.453Z,101433.72
2018-07-26T07:12:37.421Z,101433.14
2018-07-26T07:15:04.690Z,101428.23
2018-07-26T07:17:31.693Z,101425.53
2018-07-26T07:19:58.773Z,101438.34
2018-07-26T07:22:25.755Z,101441.19
2018-07-26T07:24:52.817Z,101421.97
2018-07-26T07:27:19.793Z,101443.36
2018-07-26T07:29:47.518Z,101445.11
2018-07-26T07:32:14.524Z,101448.99
2018-07-26T07:34:42.046Z,101445.44
2018-07-26T07:37:09.073Z,101449.49
2018-07-26T07:39:36.064Z,101446.22
2018-07-26T07:42:03.098Z,101445.95
2018-07-26T07:44:30.101Z,101448.22
2018-07-26T07:46:57.069Z,101431.98
2018-07-26T07:49:24.101Z,101445.83
2018-07-26T07:51:51.117Z,101447.41
2018-07-26T07:54:18.141Z,101443.45
2018-07-26T07:56:45.114Z,101444.63
2018-07-26T07:59:12.264Z,101448.38
2018-07-26T08:01:39.232Z,101451.42
2018-07-26T08:04:06.248Z,101450.47
2018-07-26T08:06:33.236Z,101459.29
2018-07-26T08:09:00.213Z,101456.67
2018-07-26T08:11:27.190Z,101456.17
2018-07-26T08:13:54.202Z,101453.70
2018-07-26T08:16:21.257Z,101458.02
2018-07-26T08:18:48.343Z,101461.23
2018-07-26T08:21:15.370Z,101455.58
2018-07-26T08:23:42.341Z,101453.92
2018-07-26T08:26:09.331Z,101447.63
2018-07-26T08:28:36.386Z,101454.67
2018-07-26T08:31:03.459Z,101450.06
2018-07-26T08:33:30.500Z,101448.91
2018-07-26T08:35:57.453Z,101445.06
2018-07-26T08:38:24.549Z,101445.25
2018-07-26T08:40:51.557Z,101454.48
2018-07-26T08:43:18.522Z,101449.48
2018-07-26T08:45:45.545Z,101449.52
2018-07-26T08:48:12.606Z,101452.17
2018-07-26T08:50:39.596Z,101452.62
2018-07-26T08:53:06.605Z,101451.39
2018-07-26T08:55:33.733Z,101447.19
2018-07-26T08:58:00.758Z,101452.14
2018-07-26T09:00:27.775Z,101455.02
2018-07-26T09:02:54.760Z,101457.30
2018-07-26T09:05:22.122Z,101454.58
2018-07-26T09:07:49.129Z,101462.23
2018-07-26T09:10:16.339Z,101460.47
2018-07-26T09:12:43.345Z,101459.53
2018-07-26T09:15:10.393Z,101465.87
2018-07-26T09:17:37.393Z,101464.12
2018-07-26T09:20:05.009Z,101469.05
2018-07-26T09:22:32.121Z,101457.52
2018-07-26T09:24:59.142Z,101457.77
2018-07-26T09:27:26.145Z,101456.89
2018-07-26T09:29:53.130Z,101451.53
2018-07-26T09:32:20.214Z,101453.77
2018-07-26T09:34:47.192Z,101452.25
2018-07-26T09:37:14.167Z,101458.06
2018-07-26T09:39:41.332Z,101453.40
2018-07-26T09:42:08.373Z,101454.37
2018-07-26T09:44:35.425Z,101452.62
2018-07-26T09:47:02.407Z,101447.52
2018-07-26T09:49:29.420Z,101447.63
2018-07-26T09:51:56.569Z,101439.25
2018-07-26T09:54:23.554Z,101442.30
2018-07-26T09:56:50.615Z,101440.98
2018-07-26T09:59:17.610Z,101440.84
2018-07-26T10:01:44.599Z,101436.05
2018-07-26T10:04:11.576Z,101438.59
2018-07-26T10:06:38.748Z,101440.90
2018-07-26T10:09:08.466Z,101434.73
2018-07-26T10:11:35.480Z,101437.78
2018-07-26T10:14:02.475Z,101433.75
2018-07-26T10:16:29.482Z,101440.40
2018-07-26T10:18:56.445Z,101439.98
2018-07-26T10:21:23.583Z,101431.09
2018-07-26T10:23:50.580Z,101431.75
2018-07-26T10:26:17.577Z,101435.09
2018-07-26T10:28:44.623Z,101435.66
2018-07-26T10:31:11.613Z,101433.92
2018-07-26T10:33:38.604Z,101433.48
2018-07-26T10:36:05.650Z,101428.92
2018-07-26T10:38:32.637Z,101426.03
2018-07-26T10:40:59.809Z,101424.97
2018-07-26T10:43:26.885Z,101425.86
2018-07-26T10:45:54.025Z,101424.80
2018-07-26T10:48:20.981Z,101423.73
2018-07-26T10:50:48.029Z,101419.98
2018-07-26T10:53:15.133Z,101412.94
2018-07-26T10:55:42.129Z,101412.11
2018-07-26T10:58:09.104Z,101412.67
2018-07-26T11:00:36.131Z,101410.80
2018-07-26T11:03:03.165Z,101410.63
2018-07-26T11:05:30.173Z,101405.22
2018-07-26T11:07:57.248Z,101408.00
2018-07-26T11:10:24.389Z,101401.30
2018-07-26T11:12:51.380Z,101401.83
2018-07-26T11:15:25.214Z,101403.77
2018-07-26T11:17:52.193Z,101406.55
2018-07-26T11:20:19.552Z,101399.25
2018-07-26T11:22:46.738Z,101397.11
2018-07-26T11:25:13.720Z,101400.42
2018-07-26T11:27:40.730Z,101400.46
2018-07-26T11:30:07.745Z,101397.20
2018-07-26T11:32:34.761Z,101396.41
2018-07-26T11:35:01.825Z,101392.87
2018-07-26T11:37:29.020Z,101394.81
2018-07-26T11:39:56.081Z,101386.67
2018-07-26T11:42:23.085Z,101388.03
2018-07-26T11:44:50.076Z,101383.44
2018-07-26T11:47:17.712Z,101381.67
2018-07-26T11:49:44.877Z,101374.15
2018-07-26T11:52:11.910Z,101379.09
2018-07-26T11:54:38.889Z,101381.05
2018-07-26T11:57:05.885Z,101375.31
2018-07-26T11:59:32.926Z,101381.54
2018-07-26T12:01:59.920Z,101378.31
2018-07-26T12:04:26.901Z,101377.81
2018-07-26T12:06:54.242Z,101381.97
2018-07-26T12:09:21.273Z,101375.20
2018-07-26T12:11:48.260Z,101370.03
2018-07-26T12:14:15.285Z,101366.28
2018-07-26T12:16:42.290Z,101356.50
2018-07-26T12:19:09.255Z,101361.14
2018-07-26T12:21:36.289Z,101357.10
2018-07-26T12:24:03.305Z,101364.73
2018-07-26T12:26:30.367Z,101357.89
2018-07-26T12:28:57.433Z,101352.78
2018-07-26T12:31:24.597Z,101349.24
2018-07-26T12:33:51.581Z,101342.72
2018-07-26T12:36:18.606Z,101342.72
2018-07-26T12:38:45.590Z,101337.53
2018-07-26T12:41:12.683Z,101337.53
2018-07-26T12:43:39.791Z,101339.72
2018-07-26T12:46:06.798Z,101335.11
2018-07-26T12:48:33.788Z,101331.86
2018-07-26T12:51:01.197Z,101333.19
2018-07-26T12:53:28.188Z,101320.16
2018-07-26T12:55:55.201Z,101332.66
2018-07-26T12:58:22.193Z,101333.19
2018-07-26T13:00:49.781Z,101329.40
2018-07-26T13:03:16.844Z,101320.41
2018-07-26T13:05:43.857Z,101316.88
2018-07-26T13:08:10.846Z,101316.62
2018-07-26T13:10:37.859Z,101313.08
2018-07-26T13:13:04.902Z,101317.98
2018-07-26T13:15:32.053Z,101309.83
2018-07-26T13:17:59.065Z,101310.09
2018-07-26T13:20:26.300Z,101314.69
2018-07-26T13:22:53.313Z,101308.45
2018-07-26T13:25:20.312Z,101314.67
2018-07-26T13:27:47.457Z,101308.44
2018-07-26T13:30:14.457Z,101310.65
2018-07-26T13:32:41.472Z,101318.77
2018-07-26T13:35:08.476Z,101307.87
2018-07-26T13:37:35.481Z,101304.89
2018-07-26T13:40:02.715Z,101308.14
2018-07-26T13:42:29.805Z,101308.68
2018-07-26T13:44:56.840Z,101308.67
2018-07-26T13:47:23.842Z,101300.80
2018-07-26T13:49:50.809Z,101298.60
2018-07-26T13:52:17.841Z,101300.77
2018-07-26T13:54:44.821Z,101300.23
2018-07-26T13:57:11.811Z,101296.95
2018-07-26T13:59:38.797Z,101290.70
2018-07-26T14:02:05.817Z,101293.97
2018-07-26T14:04:32.849Z,101285.80
2018-07-26T14:06:59.840Z,101291.99
2018-07-26T14:09:26.852Z,101289.80
2018-07-26T14:11:53.860Z,101288.69
2018-07-26T14:14:21.113Z,101284.61
2018-07-26T14:16:48.111Z,101275.97
2018-07-26T14:19:15.117Z,101281.70
2018-07-26T14:21:42.120Z,101276.81
2018-07-26T14:24:14.992Z,101277.65
2018-07-26T14:26:42.073Z,101281.75
2018-07-26T14:29:09.085Z,101276.31
2018-07-26T14:31:36.073Z,101280.64
2018-07-26T14:34:03.105Z,101276.84
2018-07-26T14:36:30.082Z,101276.02
2018-07-26T14:38:57.084Z,101268.39
2018-07-26T14:41:24.069Z,101267.87
2018-07-26T14:43:51.093Z,101267.10
2018-07-26T14:46:18.432Z,101263.28
2018-07-26T14:48:45.433Z,101267.13
2018-07-26T14:51:12.446Z,101266.00
2018-07-26T14:53:39.445Z,101263.03
2018-07-26T14:56:06.449Z,101258.39
2018-07-26T14:58:33.445Z,101259.50
2018-07-26T15:01:00.506Z,101258.39
2018-07-26T15:03:27.448Z,101262.76
2018-07-26T15:05:54.430Z,101251.59
2018-07-26T15:08:21.413Z,101254.88
2018-07-26T15:10:48.452Z,101257.32
2018-07-26T15:13:15.493Z,101262.22
2018-07-26T15:15:42.477Z,101251.34
2018-07-26T15:18:09.556Z,101255.14
2018-07-26T15:20:36.656Z,101251.88
2018-07-26T15:23:03.640Z,101255.96
2018-07-26T15:25:30.600Z,101254.35
2018-07-26T15:27:57.617Z,101250.52
2018-07-26T15:30:24.653Z,101250.80
2018-07-26T15:32:52.650Z,101247.55
2018-07-26T15:35:19.657Z,101242.33
2018-07-26T15:37:47.202Z,101245.59
2018-07-26T15:40:14.208Z,101244.23
2018-07-26T15:42:41.176Z,101249.12
2018-07-26T15:45:08.529Z,101239.06
2018-07-26T15:47:35.497Z,101246.95
2018-07-26T15:50:02.629Z,101242.05
2018-07-26T15:52:29.648Z,101251.56
2018-07-26T15:54:56.665Z,101243.95
2018-07-26T15:57:23.917Z,101247.48
2018-07-26T15:59:50.985Z,101244.77
2018-07-26T16:02:18.036Z,101248.83
2018-07-26T16:04:45.693Z,101241.20
2018-07-26T16:07:12.761Z,101243.09
2018-07-26T16:09:39.728Z,101247.13
2018-07-26T16:12:06.811Z,101240.06
2018-07-26T16:14:34.029Z,101240.05
2018-07-26T16:17:01.072Z,101239.76
2018-07-26T16:19:28.073Z,101236.51
2018-07-26T16:21:55.232Z,101232.14
2018-07-26T16:24:22.254Z,101235.95
2018-07-26T16:26:49.317Z,101233.23
2018-07-26T16:29:16.323Z,101236.75
2018-07-26T16:31:43.336Z,101236.17
2018-07-26T16:34:10.505Z,101239.44
2018-07-26T16:36:37.453Z,101237.27
2018-07-26T16:39:07.393Z,101239.42
2018-07-26T16:41:35.389Z,101242.38
2018-07-26T16:44:02.663Z,101234.75
2018-07-26T16:46:30.594Z,101235.30
2018-07-26T16:48:57.629Z,101240.13
2018-07-26T16:51:24.661Z,101244.77
2018-07-26T16:53:51.708Z,101247.18
2018-07-26T16:56:18.839Z,101245.27
2018-07-26T16:58:45.906Z,101244.15
2018-07-26T17:01:12.893Z,101247.41
2018-07-26T17:03:39.905Z,101240.87
2018-07-26T17:06:06.973Z,101246.03
2018-07-26T17:08:33.953Z,101245.74
2018-07-26T17:11:01.090Z,101250.10
2018-07-26T17:13:28.292Z,101247.62
2018-07-26T17:15:55.357Z,101253.05
2018-07-26T17:18:22.989Z,101252.76
2018-07-26T17:20:50.117Z,101253.27
2018-07-26T17:23:17.140Z,101248.94
2018-07-26T17:25:44.298Z,101243.22
2018-07-26T17:28:12.385Z,101247.01
2018-07-26T17:30:39.582Z,101252.42
2018-07-26T17:33:06.989Z,101253.75
2018-07-26T17:35:34.013Z,101257.55
2018-07-26T17:38:01.579Z,101256.20
2018-07-26T17:40:29.157Z,101255.34
2018-07-26T17:42:56.163Z,101258.25
2018-07-26T17:45:23.249Z,101258.53
2018-07-26T17:47:50.277Z,101266.95
2018-07-26T17:50:17.355Z,101269.88
2018-07-26T17:52:44.429Z,101269.60
2018-07-26T17:55:12.141Z,101274.20
2018-07-26T17:57:39.686Z,101269.29
2018-07-26T18:00:08.714Z,101278.27
2018-07-26T18:02:35.781Z,101281.83
2018-07-26T18:05:03.058Z,101285.29
2018-07-26T18:07:30.053Z,101279.11
2018-07-26T18:09:57.056Z,101285.33
2018-07-26T18:12:24.056Z,101286.92
2018-07-26T18:14:51.055Z,101281.21
2018-07-26T18:17:18.727Z,101280.09
2018-07-26T18:19:46.115Z,101281.39
2018-07-26T18:22:13.849Z,101284.34
2018-07-26T18:24:40.905Z,101281.30
2018-07-26T18:27:08.072Z,101281.74
2018-07-26T18:29:35.277Z,101283.05
2018-07-26T18:32:02.348Z,101297.84
2018-07-26T18:34:29.439Z,101295.35
2018-07-26T18:36:56.465Z,101296.39
2018-07-26T18:39:23.464Z,101301.73
2018-07-26T18:41:50.480Z,101304.30
2018-07-26T18:44:17.437Z,101306.59
2018-07-26T18:46:44.417Z,101310.29
2018-07-26T18:49:11.880Z,101309.60
2018-07-26T18:51:38.881Z,101318.91
2018-07-26T18:54:05.905Z,101318.17
2018-07-26T18:56:32.910Z,101319.64
2018-07-26T18:58:59.945Z,101320.48
2018-07-26T19:01:26.968Z,101323.84
2018-07-26T19:03:54.158Z,101325.00
2018-07-26T19:06:21.174Z,101327.02
2018-07-26T19:08:48.206Z,101336.34
2018-07-26T19:11:15.188Z,101330.20
2018-07-26T19:13:42.213Z,101332.48
2018-07-26T19:16:09.293Z,101332.02
2018-07-26T19:18:42.981Z,101330.48
2018-07-26T19:21:10.037Z,101337.35
2018-07-26T19:23:37.429Z,101339.08
2018-07-26T19:26:04.729Z,101339.17
2018-07-26T19:28:31.714Z,101346.02
2018-07-26T19:30:58.873Z,101351.79
2018-07-26T19:33:25.968Z,101347.58
2018-07-26T19:35:52.954Z,101354.17
2018-07-26T19:38:19.949Z,101357.01
2018-07-26T19:40:46.989Z,101353.31
2018-07-26T19:43:14.101Z,101357.72
2018-07-26T19:45:41.282Z,101357.30
2018-07-26T19:48:08.389Z,101361.50
2018-07-26T19:50:35.360Z,101358.72
2018-07-26T19:53:02.477Z,101351.55
2018-07-26T19:55:29.888Z,101366.27
2018-07-26T19:57:56.869Z,101366.40
2018-07-26T20:00:24.561Z,101368.67
2018-07-26T20:02:51.585Z,101355.77
2018-07-26T20:05:18.621Z,101370.53
2018-07-26T20:07:45.672Z,101364.64
2018-07-26T20:10:12.989Z,101372.15
2018-07-26T20:12:40.526Z,101374.69
2018-07-26T20:15:07.892Z,101374.55
2018-07-26T20:17:35.035Z,101370.38
2018-07-26T20:20:02.265Z,101375.95
2018-07-26T20:22:29.272Z,101373.13
2018-07-26T20:24:56.305Z,101378.14
2018-07-26T20:27:23.557Z,101375.55
2018-07-26T20:29:50.605Z,101377.04
2018-07-26T20:32:17.637Z,101382.02
2018-07-26T20:34:44.857Z,101386.81
2018-07-26T20:37:11.926Z,101387.57
2018-07-26T20:39:39.044Z,101389.81
2018-07-26T20:42:06.052Z,101385.39
2018-07-26T20:44:33.042Z,101385.77
2018-07-26T20:47:00.101Z,101389.95
2018-07-26T20:49:27.093Z,101387.70
2018-07-26T20:51:54.809Z,101384.27
2018-07-26T20:54:21.973Z,101387.41
2018-07-26T20:56:49.084Z,101382.64
2018-07-26T20:59:16.065Z,101382.36
2018-07-26T21:01:43.068Z,101390.56
2018-07-26T21:04:10.049Z,101383.48
2018-07-26T21:06:37.074Z,101386.54
2018-07-26T21:09:07.393Z,101387.42
2018-07-26T21:11:34.470Z,101388.41
2018-07-26T21:14:01.422Z,101392.66
2018-07-26T21:16:28.449Z,101393.84
2018-07-26T21:18:55.477Z,101395.66
2018-07-26T21:21:22.464Z,101391.52
2018-07-26T21:23:49.484Z,101397.54
2018-07-26T21:26:16.465Z,101389.11
2018-07-26T21:28:43.473Z,101406.64
2018-07-26T21:31:10.469Z,101400.06
2018-07-26T21:33:37.593Z,101401.12
2018-07-26T21:36:04.766Z,101406.11
2018-07-26T21:38:31.874Z,101403.86
2018-07-26T21:40:58.898Z,101400.93
2018-07-26T21:43:25.885Z,101411.69
2018-07-26T21:45:52.842Z,101410.17
2018-07-26T21:48:20.106Z,101411.95
2018-07-26T21:50:47.137Z,101417.05
2018-07-26T21:53:14.113Z,101417.99
2018-07-26T21:55:41.360Z,101423.59
2018-07-26T21:58:08.329Z,101420.52
2018-07-26T22:01:08.647Z,101419.83
2018-07-26T22:03:35.679Z,101422.34
2018-07-26T22:06:02.685Z,101422.74
2018-07-26T22:08:29.892Z,101424.55
2018-07-26T22:10:56.889Z,101426.31
2018-07-26T22:13:23.863Z,101422.63
2018-07-26T22:15:51.802Z,101421.52
2018-07-26T22:18:18.978Z,101428.94
2018-07-26T22:20:46.017Z,101428.57
2018-07-26T22:23:13.018Z,101427.88
2018-07-26T22:25:43.914Z,101425.39
2018-07-26T22:28:10.929Z,101427.70
2018-07-26T22:30:37.916Z,101421.41
2018-07-26T22:33:04.890Z,101425.36
2018-07-26T22:35:31.845Z,101424.95
2018-07-26T22:37:58.840Z,101424.26
2018-07-26T22:40:25.873Z,101425.51
2018-07-26T22:42:52.929Z,101432.36
2018-07-26T22:45:19.905Z,101430.92
2018-07-26T22:47:46.860Z,101431.34
2018-07-26T22:50:14.112Z,101432.59
2018-07-26T22:52:41.207Z,101435.70
2018-07-26T22:55:08.621Z,101429.73
2018-07-26T22:57:35.597Z,101432.89
2018-07-26T23:00:02.696Z,101430.95
2018-07-26T23:02:29.709Z,101437.56
2018-07-26T23:04:56.649Z,101435.30
2018-07-26T23:07:23.712Z,101433.58
2018-07-26T23:09:50.709Z,101433.16
2018-07-26T23:12:17.673Z,101432.75
2018-07-26T23:14:44.721Z,101432.15
2018-07-26T23:17:12.389Z,101426.81
2018-07-26T23:19:39.357Z,101425.38
2018-07-26T23:22:06.364Z,101431.77
2018-07-26T23:24:33.357Z,101424.97
2018-07-26T23:27:00.698Z,101428.89
2018-07-26T23:29:27.656Z,101433.87
2018-07-26T23:31:54.681Z,101427.27
2018-07-26T23:34:21.652Z,101431.19
2018-07-26T23:36:48.628Z,101426.78
2018-07-26T23:39:15.589Z,101426.87
2018-07-26T23:41:42.552Z,101423.30
2018-07-26T23:44:09.640Z,101423.09
2018-07-26T23:46:36.953Z,101424.53
2018-07-26T23:49:03.990Z,101427.59
2018-07-26T23:51:31.161Z,101427.39
2018-07-26T23:53:58.124Z,101427.52
2018-07-26T23:56:25.137Z,101426.30
2018-07-26T23:58:52.209Z,101422.90
